sensor_id;sensor_type;location;lat;lon;timestamp;P1;durP1;ratioP1;P2;durP2;ratioP2
19846;SDS011;10084;50.518;8.588;2024-03-06T00:00:57;3.70;;;1.17;;
19846;SDS011;10084;50.518;8.588;2024-03-06T00:03:23;1.57;;;1.43;;
19846;SDS011;10084;50.518;8.588;2024-03-06T00:05:48;2.20;;;2.00;;
19846;SDS011;10084;50.518;8.588;2024-03-06T00:08:14;11.23;;;1.50;;
19846;SDS011;10084;50.518;8.588;2024-03-06T00:10:40;2.20;;;1.50;;
19846;SDS011;10084;50.518;8.588;2024-03-06T00:13:07;2.00;;;1.80;;
19846;SDS011;10084;50.518;8.588;2024-03-06T00:15:33;4.93;;;2.30;;
19846;SDS011;10084;50.518;8.588;2024-03-06T00:17:59;9.00;;;2.80;;
19846;SDS011;10084;50.518;8.588;2024-03-06T00:20:26;2.07;;;1.87;;
19846;SDS011;10084;50.518;8.588;2024-03-06T00:22:52;3.90;;;2.43;;
19846;SDS011;10084;50.518;8.588;2024-03-06T00:25:17;2.50;;;1.50;;
19846;SDS011;10084;50.518;8.588;2024-03-06T00:27:43;2.10;;;1.83;;
19846;SDS011;10084;50.518;8.588;2024-03-06T00:30:09;4.70;;;2.33;;
19846;SDS011;10084;50.518;8.588;2024-03-06T00:32:35;4.40;;;2.80;;
19846;SDS011;10084;50.518;8.588;2024-03-06T00:35:01;5.23;;;2.67;;
19846;SDS011;10084;50.518;8.588;2024-03-06T00:37:28;3.83;;;1.90;;
19846;SDS011;10084;50.518;8.588;2024-03-06T00:39:55;2.63;;;2.37;;
19846;SDS011;10084;50.518;8.588;2024-03-06T00:42:20;1.87;;;1.73;;
19846;SDS011;10084;50.518;8.588;2024-03-06T00:44:46;3.37;;;1.70;;
19846;SDS011;10084;50.518;8.588;2024-03-06T00:47:12;4.13;;;2.30;;
19846;SDS011;10084;50.518;8.588;2024-03-06T00:49:38;1.70;;;1.60;;
19846;SDS011;10084;50.518;8.588;2024-03-06T00:52:04;2.07;;;1.10;;
19846;SDS011;10084;50.518;8.588;2024-03-06T00:54:30;0.80;;;0.80;;
19846;SDS011;10084;50.518;8.588;2024-03-06T00:56:56;2.03;;;0.90;;
19846;SDS011;10084;50.518;8.588;2024-03-06T00:59:22;2.20;;;1.03;;
19846;SDS011;10084;50.518;8.588;2024-03-06T01:01:48;4.33;;;1.60;;
19846;SDS011;10084;50.518;8.588;2024-03-06T01:04:14;2.30;;;2.10;;
19846;SDS011;10084;50.518;8.588;2024-03-06T01:06:39;2.13;;;1.93;;
19846;SDS011;10084;50.518;8.588;2024-03-06T01:09:05;4.87;;;1.07;;
19846;SDS011;10084;50.518;8.588;2024-03-06T01:11:31;2.43;;;1.53;;
19846;SDS011;10084;50.518;8.588;2024-03-06T01:13:56;1.93;;;1.77;;
19846;SDS011;10084;50.518;8.588;2024-03-06T01:16:22;2.03;;;1.50;;
19846;SDS011;10084;50.518;8.588;2024-03-06T01:18:48;2.37;;;2.10;;
19846;SDS011;10084;50.518;8.588;2024-03-06T01:21:14;2.00;;;1.67;;
19846;SDS011;10084;50.518;8.588;2024-03-06T01:23:40;7.33;;;2.07;;
19846;SDS011;10084;50.518;8.588;2024-03-06T01:26:06;2.20;;;1.97;;
19846;SDS011;10084;50.518;8.588;2024-03-06T01:28:31;3.00;;;1.63;;
19846;SDS011;10084;50.518;8.588;2024-03-06T01:30:58;2.63;;;1.97;;
19846;SDS011;10084;50.518;8.588;2024-03-06T01:33:24;2.73;;;2.00;;
19846;SDS011;10084;50.518;8.588;2024-03-06T01:35:50;1.90;;;1.73;;
19846;SDS011;10084;50.518;8.588;2024-03-06T01:38:15;2.80;;;2.07;;
19846;SDS011;10084;50.518;8.588;2024-03-06T01:40:44;6.47;;;1.57;;
19846;SDS011;10084;50.518;8.588;2024-03-06T01:43:20;2.13;;;1.43;;
19846;SDS011;10084;50.518;8.588;2024-03-06T01:45:47;2.03;;;1.43;;
19846;SDS011;10084;50.518;8.588;2024-03-06T01:48:13;2.33;;;1.43;;
19846;SDS011;10084;50.518;8.588;2024-03-06T01:50:41;2.20;;;2.00;;
19846;SDS011;10084;50.518;8.588;2024-03-06T01:53:06;5.30;;;2.17;;
19846;SDS011;10084;50.518;8.588;2024-03-06T01:55:33;2.43;;;2.23;;
19846;SDS011;10084;50.518;8.588;2024-03-06T01:57:59;12.97;;;2.77;;
19846;SDS011;10084;50.518;8.588;2024-03-06T02:00:25;2.47;;;1.70;;
19846;SDS011;10084;50.518;8.588;2024-03-06T02:02:51;2.43;;;2.23;;
19846;SDS011;10084;50.518;8.588;2024-03-06T02:05:17;2.30;;;2.07;;
19846;SDS011;10084;50.518;8.588;2024-03-06T02:07:43;3.07;;;1.60;;
19846;SDS011;10084;50.518;8.588;2024-03-06T02:10:10;1.93;;;1.73;;
19846;SDS011;10084;50.518;8.588;2024-03-06T02:12:37;1.03;;;1.03;;
19846;SDS011;10084;50.518;8.588;2024-03-06T02:15:03;2.37;;;1.50;;
19846;SDS011;10084;50.518;8.588;2024-03-06T02:17:30;1.43;;;1.33;;
19846;SDS011;10084;50.518;8.588;2024-03-06T02:19:55;1.43;;;1.33;;
19846;SDS011;10084;50.518;8.588;2024-03-06T02:22:23;2.07;;;1.87;;
19846;SDS011;10084;50.518;8.588;2024-03-06T02:24:49;1.70;;;1.57;;
19846;SDS011;10084;50.518;8.588;2024-03-06T02:27:15;2.00;;;1.83;;
19846;SDS011;10084;50.518;8.588;2024-03-06T02:29:42;5.40;;;2.47;;
19846;SDS011;10084;50.518;8.588;2024-03-06T02:32:08;2.47;;;2.27;;
19846;SDS011;10084;50.518;8.588;2024-03-06T02:34:38;1.77;;;1.07;;
19846;SDS011;10084;50.518;8.588;2024-03-06T02:37:03;1.13;;;1.10;;
19846;SDS011;10084;50.518;8.588;2024-03-06T02:39:29;2.87;;;1.50;;
19846;SDS011;10084;50.518;8.588;2024-03-06T02:41:54;2.10;;;1.77;;
19846;SDS011;10084;50.518;8.588;2024-03-06T02:44:20;3.63;;;1.63;;
19846;SDS011;10084;50.518;8.588;2024-03-06T02:46:49;2.10;;;1.90;;
19846;SDS011;10084;50.518;8.588;2024-03-06T02:49:15;1.83;;;1.60;;
19846;SDS011;10084;50.518;8.588;2024-03-06T02:51:42;2.63;;;1.53;;
19846;SDS011;10084;50.518;8.588;2024-03-06T02:54:08;1.87;;;1.77;;
19846;SDS011;10084;50.518;8.588;2024-03-06T02:56:33;1.57;;;1.27;;
19846;SDS011;10084;50.518;8.588;2024-03-06T02:58:59;3.50;;;1.50;;
19846;SDS011;10084;50.518;8.588;2024-03-06T03:01:28;3.60;;;1.40;;
19846;SDS011;10084;50.518;8.588;2024-03-06T03:03:54;3.17;;;1.87;;
19846;SDS011;10084;50.518;8.588;2024-03-06T03:06:21;1.27;;;1.17;;
19846;SDS011;10084;50.518;8.588;2024-03-06T03:08:49;3.67;;;1.60;;
19846;SDS011;10084;50.518;8.588;2024-03-06T03:11:15;4.03;;;1.30;;
19846;SDS011;10084;50.518;8.588;2024-03-06T03:13:41;9.87;;;2.03;;
19846;SDS011;10084;50.518;8.588;2024-03-06T03:16:14;3.17;;;1.53;;
19846;SDS011;10084;50.518;8.588;2024-03-06T03:18:43;1.63;;;1.53;;
19846;SDS011;10084;50.518;8.588;2024-03-06T03:21:09;2.10;;;1.90;;
19846;SDS011;10084;50.518;8.588;2024-03-06T03:23:37;2.70;;;1.93;;
19846;SDS011;10084;50.518;8.588;2024-03-06T03:26:03;2.00;;;1.83;;
19846;SDS011;10084;50.518;8.588;2024-03-06T03:28:32;2.27;;;1.80;;
19846;SDS011;10084;50.518;8.588;2024-03-06T03:30:58;6.80;;;2.27;;
19846;SDS011;10084;50.518;8.588;2024-03-06T03:33:24;5.33;;;2.23;;
19846;SDS011;10084;50.518;8.588;2024-03-06T03:35:50;3.93;;;2.00;;
19846;SDS011;10084;50.518;8.588;2024-03-06T03:38:16;2.47;;;1.87;;
19846;SDS011;10084;50.518;8.588;2024-03-06T03:40:42;1.97;;;1.33;;
19846;SDS011;10084;50.518;8.588;2024-03-06T03:43:08;3.93;;;2.53;;
19846;SDS011;10084;50.518;8.588;2024-03-06T03:45:34;4.60;;;2.47;;
19846;SDS011;10084;50.518;8.588;2024-03-06T03:48:01;2.03;;;1.83;;
19846;SDS011;10084;50.518;8.588;2024-03-06T03:50:30;2.37;;;2.17;;
19846;SDS011;10084;50.518;8.588;2024-03-06T03:52:57;5.57;;;1.47;;
19846;SDS011;10084;50.518;8.588;2024-03-06T03:55:26;3.90;;;2.60;;
19846;SDS011;10084;50.518;8.588;2024-03-06T03:57:52;6.83;;;1.20;;
19846;SDS011;10084;50.518;8.588;2024-03-06T04:00:18;2.27;;;2.10;;
19846;SDS011;10084;50.518;8.588;2024-03-06T04:02:44;2.93;;;1.60;;
19846;SDS011;10084;50.518;8.588;2024-03-06T04:05:10;4.93;;;2.47;;
19846;SDS011;10084;50.518;8.588;2024-03-06T04:07:36;1.77;;;1.57;;
19846;SDS011;10084;50.518;8.588;2024-03-06T04:10:02;1.97;;;1.87;;
19846;SDS011;10084;50.518;8.588;2024-03-06T04:12:28;2.20;;;1.90;;
19846;SDS011;10084;50.518;8.588;2024-03-06T04:14:54;5.97;;;2.20;;
19846;SDS011;10084;50.518;8.588;2024-03-06T04:17:20;5.10;;;2.07;;
19846;SDS011;10084;50.518;8.588;2024-03-06T04:19:45;2.83;;;2.20;;
19846;SDS011;10084;50.518;8.588;2024-03-06T04:22:13;3.17;;;1.53;;
19846;SDS011;10084;50.518;8.588;2024-03-06T04:24:42;3.00;;;2.70;;
19846;SDS011;10084;50.518;8.588;2024-03-06T04:27:08;10.03;;;2.43;;
19846;SDS011;10084;50.518;8.588;2024-03-06T04:29:34;2.20;;;1.80;;
19846;SDS011;10084;50.518;8.588;2024-03-06T04:31:59;2.87;;;2.57;;
19846;SDS011;10084;50.518;8.588;2024-03-06T04:34:25;2.33;;;2.13;;
19846;SDS011;10084;50.518;8.588;2024-03-06T04:36:51;2.20;;;2.03;;
19846;SDS011;10084;50.518;8.588;2024-03-06T04:39:16;2.87;;;2.60;;
19846;SDS011;10084;50.518;8.588;2024-03-06T04:41:42;3.13;;;2.83;;
19846;SDS011;10084;50.518;8.588;2024-03-06T04:44:08;3.70;;;2.20;;
19846;SDS011;10084;50.518;8.588;2024-03-06T04:46:34;9.23;;;3.83;;
19846;SDS011;10084;50.518;8.588;2024-03-06T04:49:00;5.53;;;3.67;;
19846;SDS011;10084;50.518;8.588;2024-03-06T04:51:25;4.77;;;2.93;;
19846;SDS011;10084;50.518;8.588;2024-03-06T04:53:51;9.10;;;3.87;;
19846;SDS011;10084;50.518;8.588;2024-03-06T04:56:16;10.53;;;4.33;;
19846;SDS011;10084;50.518;8.588;2024-03-06T04:58:44;6.57;;;3.67;;
19846;SDS011;10084;50.518;8.588;2024-03-06T05:01:11;8.63;;;4.23;;
19846;SDS011;10084;50.518;8.588;2024-03-06T05:03:37;6.60;;;3.90;;
19846;SDS011;10084;50.518;8.588;2024-03-06T05:06:04;6.57;;;3.00;;
19846;SDS011;10084;50.518;8.588;2024-03-06T05:08:30;8.53;;;3.73;;
19846;SDS011;10084;50.518;8.588;2024-03-06T05:10:56;5.57;;;3.20;;
19846;SDS011;10084;50.518;8.588;2024-03-06T05:13:22;9.83;;;3.97;;
19846;SDS011;10084;50.518;8.588;2024-03-06T05:15:48;7.57;;;4.07;;
19846;SDS011;10084;50.518;8.588;2024-03-06T05:18:14;12.37;;;3.60;;
19846;SDS011;10084;50.518;8.588;2024-03-06T05:20:39;10.27;;;3.70;;
19846;SDS011;10084;50.518;8.588;2024-03-06T05:23:05;6.00;;;3.50;;
19846;SDS011;10084;50.518;8.588;2024-03-06T05:25:31;8.73;;;4.43;;
19846;SDS011;10084;50.518;8.588;2024-03-06T05:27:56;11.50;;;3.83;;
19846;SDS011;10084;50.518;8.588;2024-03-06T05:30:22;3.20;;;2.63;;
19846;SDS011;10084;50.518;8.588;2024-03-06T05:32:48;7.90;;;3.70;;
19846;SDS011;10084;50.518;8.588;2024-03-06T05:35:14;5.30;;;3.70;;
19846;SDS011;10084;50.518;8.588;2024-03-06T05:37:39;3.93;;;3.43;;
19846;SDS011;10084;50.518;8.588;2024-03-06T05:40:05;6.67;;;3.90;;
19846;SDS011;10084;50.518;8.588;2024-03-06T05:42:31;6.27;;;5.00;;
19846;SDS011;10084;50.518;8.588;2024-03-06T05:44:57;7.67;;;4.80;;
19846;SDS011;10084;50.518;8.588;2024-03-06T05:47:31;3.50;;;3.20;;
19846;SDS011;10084;50.518;8.588;2024-03-06T05:49:57;5.40;;;3.07;;
19846;SDS011;10084;50.518;8.588;2024-03-06T05:52:23;3.47;;;2.83;;
19846;SDS011;10084;50.518;8.588;2024-03-06T05:54:49;4.27;;;3.43;;
19846;SDS011;10084;50.518;8.588;2024-03-06T05:57:15;6.37;;;5.60;;
19846;SDS011;10084;50.518;8.588;2024-03-06T05:59:41;6.27;;;4.73;;
19846;SDS011;10084;50.518;8.588;2024-03-06T06:02:07;17.70;;;4.50;;
19846;SDS011;10084;50.518;8.588;2024-03-06T06:04:33;7.20;;;3.93;;
19846;SDS011;10084;50.518;8.588;2024-03-06T06:06:58;5.50;;;3.97;;
19846;SDS011;10084;50.518;8.588;2024-03-06T06:09:24;5.70;;;3.30;;
19846;SDS011;10084;50.518;8.588;2024-03-06T06:11:50;14.40;;;3.97;;
19846;SDS011;10084;50.518;8.588;2024-03-06T06:14:16;8.43;;;4.00;;
19846;SDS011;10084;50.518;8.588;2024-03-06T06:16:42;11.07;;;3.87;;
19846;SDS011;10084;50.518;8.588;2024-03-06T06:19:07;3.27;;;2.97;;
19846;SDS011;10084;50.518;8.588;2024-03-06T06:21:33;9.07;;;6.10;;
19846;SDS011;10084;50.518;8.588;2024-03-06T06:24:04;10.17;;;5.33;;
19846;SDS011;10084;50.518;8.588;2024-03-06T06:26:30;6.17;;;4.90;;
19846;SDS011;10084;50.518;8.588;2024-03-06T06:28:56;10.63;;;6.57;;
19846;SDS011;10084;50.518;8.588;2024-03-06T06:31:23;20.03;;;13.53;;
19846;SDS011;10084;50.518;8.588;2024-03-06T06:33:50;32.20;;;11.00;;
19846;SDS011;10084;50.518;8.588;2024-03-06T06:36:17;14.90;;;7.73;;
19846;SDS011;10084;50.518;8.588;2024-03-06T06:38:43;4.37;;;4.03;;
19846;SDS011;10084;50.518;8.588;2024-03-06T06:41:09;12.13;;;3.00;;
19846;SDS011;10084;50.518;8.588;2024-03-06T06:43:35;6.50;;;4.80;;
19846;SDS011;10084;50.518;8.588;2024-03-06T06:46:01;3.10;;;2.10;;
19846;SDS011;10084;50.518;8.588;2024-03-06T06:48:30;9.40;;;8.07;;
19846;SDS011;10084;50.518;8.588;2024-03-06T06:50:55;16.03;;;9.50;;
19846;SDS011;10084;50.518;8.588;2024-03-06T06:53:21;13.97;;;7.37;;
19846;SDS011;10084;50.518;8.588;2024-03-06T06:55:47;5.73;;;4.60;;
19846;SDS011;10084;50.518;8.588;2024-03-06T06:58:12;7.53;;;4.03;;
19846;SDS011;10084;50.518;8.588;2024-03-06T07:00:38;9.20;;;5.73;;
19846;SDS011;10084;50.518;8.588;2024-03-06T07:03:04;8.63;;;4.57;;
19846;SDS011;10084;50.518;8.588;2024-03-06T07:05:30;7.27;;;4.10;;
19846;SDS011;10084;50.518;8.588;2024-03-06T07:07:56;6.03;;;3.27;;
19846;SDS011;10084;50.518;8.588;2024-03-06T07:10:21;6.97;;;4.03;;
19846;SDS011;10084;50.518;8.588;2024-03-06T07:12:48;10.87;;;3.60;;
19846;SDS011;10084;50.518;8.588;2024-03-06T07:15:14;9.70;;;4.70;;
19846;SDS011;10084;50.518;8.588;2024-03-06T07:17:39;4.50;;;3.90;;
19846;SDS011;10084;50.518;8.588;2024-03-06T07:20:05;4.00;;;3.17;;
19846;SDS011;10084;50.518;8.588;2024-03-06T07:22:33;6.90;;;3.70;;
19846;SDS011;10084;50.518;8.588;2024-03-06T07:25:00;9.10;;;3.57;;
19846;SDS011;10084;50.518;8.588;2024-03-06T07:27:27;6.70;;;3.13;;
19846;SDS011;10084;50.518;8.588;2024-03-06T07:29:53;7.53;;;3.83;;
19846;SDS011;10084;50.518;8.588;2024-03-06T07:32:19;4.20;;;3.80;;
19846;SDS011;10084;50.518;8.588;2024-03-06T07:34:45;5.57;;;3.00;;
19846;SDS011;10084;50.518;8.588;2024-03-06T07:37:10;6.57;;;3.77;;
19846;SDS011;10084;50.518;8.588;2024-03-06T07:39:36;5.20;;;3.87;;
19846;SDS011;10084;50.518;8.588;2024-03-06T07:42:02;6.07;;;3.30;;
19846;SDS011;10084;50.518;8.588;2024-03-06T07:44:28;3.50;;;3.23;;
19846;SDS011;10084;50.518;8.588;2024-03-06T07:46:54;4.27;;;3.13;;
19846;SDS011;10084;50.518;8.588;2024-03-06T07:49:20;3.40;;;3.10;;
19846;SDS011;10084;50.518;8.588;2024-03-06T07:51:48;6.27;;;2.63;;
19846;SDS011;10084;50.518;8.588;2024-03-06T07:54:14;4.33;;;2.83;;
19846;SDS011;10084;50.518;8.588;2024-03-06T07:56:40;7.67;;;3.73;;
19846;SDS011;10084;50.518;8.588;2024-03-06T07:59:06;4.63;;;3.43;;
19846;SDS011;10084;50.518;8.588;2024-03-06T08:01:31;5.90;;;3.30;;
19846;SDS011;10084;50.518;8.588;2024-03-06T08:03:58;10.20;;;4.57;;
19846;SDS011;10084;50.518;8.588;2024-03-06T08:06:23;6.87;;;4.23;;
19846;SDS011;10084;50.518;8.588;2024-03-06T08:08:50;5.03;;;3.33;;
19846;SDS011;10084;50.518;8.588;2024-03-06T08:11:17;4.40;;;3.23;;
19846;SDS011;10084;50.518;8.588;2024-03-06T08:13:43;3.00;;;2.80;;
19846;SDS011;10084;50.518;8.588;2024-03-06T08:16:09;4.23;;;2.43;;
19846;SDS011;10084;50.518;8.588;2024-03-06T08:18:36;7.03;;;2.97;;
19846;SDS011;10084;50.518;8.588;2024-03-06T08:21:02;5.13;;;3.23;;
19846;SDS011;10084;50.518;8.588;2024-03-06T08:23:30;3.63;;;2.70;;
19846;SDS011;10084;50.518;8.588;2024-03-06T08:25:56;3.57;;;3.10;;
19846;SDS011;10084;50.518;8.588;2024-03-06T08:28:22;7.63;;;3.00;;
19846;SDS011;10084;50.518;8.588;2024-03-06T08:30:47;6.57;;;4.17;;
19846;SDS011;10084;50.518;8.588;2024-03-06T08:33:13;7.70;;;3.33;;
19846;SDS011;10084;50.518;8.588;2024-03-06T08:35:39;3.63;;;3.10;;
19846;SDS011;10084;50.518;8.588;2024-03-06T08:38:05;4.63;;;3.10;;
19846;SDS011;10084;50.518;8.588;2024-03-06T08:40:31;5.33;;;3.87;;
19846;SDS011;10084;50.518;8.588;2024-03-06T08:42:57;5.43;;;3.03;;
19846;SDS011;10084;50.518;8.588;2024-03-06T08:45:23;5.77;;;3.30;;
19846;SDS011;10084;50.518;8.588;2024-03-06T08:47:49;6.07;;;2.70;;
19846;SDS011;10084;50.518;8.588;2024-03-06T08:50:15;4.90;;;3.27;;
19846;SDS011;10084;50.518;8.588;2024-03-06T08:52:41;5.10;;;3.63;;
19846;SDS011;10084;50.518;8.588;2024-03-06T08:55:07;4.87;;;3.60;;
19846;SDS011;10084;50.518;8.588;2024-03-06T08:57:34;7.00;;;3.90;;
19846;SDS011;10084;50.518;8.588;2024-03-06T09:00:02;8.93;;;3.23;;
19846;SDS011;10084;50.518;8.588;2024-03-06T09:02:29;8.00;;;4.23;;
19846;SDS011;10084;50.518;8.588;2024-03-06T09:04:55;9.13;;;3.83;;
19846;SDS011;10084;50.518;8.588;2024-03-06T09:07:21;7.50;;;4.17;;
19846;SDS011;10084;50.518;8.588;2024-03-06T09:09:50;4.67;;;3.80;;
19846;SDS011;10084;50.518;8.588;2024-03-06T09:12:17;5.40;;;3.47;;
19846;SDS011;10084;50.518;8.588;2024-03-06T09:14:43;5.70;;;3.60;;
19846;SDS011;10084;50.518;8.588;2024-03-06T09:17:10;3.37;;;2.90;;
19846;SDS011;10084;50.518;8.588;2024-03-06T09:19:38;6.03;;;3.27;;
19846;SDS011;10084;50.518;8.588;2024-03-06T09:22:04;7.03;;;4.27;;
19846;SDS011;10084;50.518;8.588;2024-03-06T09:24:29;5.80;;;4.13;;
19846;SDS011;10084;50.518;8.588;2024-03-06T09:26:55;5.13;;;2.90;;
19846;SDS011;10084;50.518;8.588;2024-03-06T09:29:21;6.60;;;4.90;;
19846;SDS011;10084;50.518;8.588;2024-03-06T09:31:47;10.27;;;4.50;;
19846;SDS011;10084;50.518;8.588;2024-03-06T09:34:13;10.83;;;4.53;;
19846;SDS011;10084;50.518;8.588;2024-03-06T09:36:40;6.40;;;5.07;;
19846;SDS011;10084;50.518;8.588;2024-03-06T09:39:13;11.47;;;5.43;;
19846;SDS011;10084;50.518;8.588;2024-03-06T09:41:45;7.47;;;5.10;;
19846;SDS011;10084;50.518;8.588;2024-03-06T09:44:18;7.90;;;4.87;;
19846;SDS011;10084;50.518;8.588;2024-03-06T09:46:45;8.70;;;5.33;;
19846;SDS011;10084;50.518;8.588;2024-03-06T09:49:16;6.47;;;5.23;;
19846;SDS011;10084;50.518;8.588;2024-03-06T09:51:45;8.47;;;6.33;;
19846;SDS011;10084;50.518;8.588;2024-03-06T09:54:12;7.23;;;5.13;;
19846;SDS011;10084;50.518;8.588;2024-03-06T09:56:42;6.77;;;5.57;;
19846;SDS011;10084;50.518;8.588;2024-03-06T09:59:11;6.67;;;4.97;;
19846;SDS011;10084;50.518;8.588;2024-03-06T10:01:40;9.10;;;5.73;;
19846;SDS011;10084;50.518;8.588;2024-03-06T10:04:24;7.23;;;5.43;;
19846;SDS011;10084;50.518;8.588;2024-03-06T10:06:55;15.27;;;6.70;;
19846;SDS011;10084;50.518;8.588;2024-03-06T10:09:22;8.90;;;5.03;;
19846;SDS011;10084;50.518;8.588;2024-03-06T10:11:48;7.23;;;5.73;;
19846;SDS011;10084;50.518;8.588;2024-03-06T10:14:14;6.33;;;4.67;;
19846;SDS011;10084;50.518;8.588;2024-03-06T10:19:22;10.50;;;5.90;;
19846;SDS011;10084;50.518;8.588;2024-03-06T10:21:49;5.90;;;5.03;;
19846;SDS011;10084;50.518;8.588;2024-03-06T10:26:49;5.57;;;5.03;;
19846;SDS011;10084;50.518;8.588;2024-03-06T10:29:20;6.87;;;4.83;;
19846;SDS011;10084;50.518;8.588;2024-03-06T10:31:53;6.57;;;4.40;;
19846;SDS011;10084;50.518;8.588;2024-03-06T10:34:29;7.37;;;4.40;;
19846;SDS011;10084;50.518;8.588;2024-03-06T10:36:55;6.97;;;4.73;;
19846;SDS011;10084;50.518;8.588;2024-03-06T10:39:34;7.93;;;4.80;;
19846;SDS011;10084;50.518;8.588;2024-03-06T10:42:04;5.70;;;5.13;;
19846;SDS011;10084;50.518;8.588;2024-03-06T10:44:32;6.87;;;4.87;;
19846;SDS011;10084;50.518;8.588;2024-03-06T10:47:03;7.50;;;4.73;;
19846;SDS011;10084;50.518;8.588;2024-03-06T10:49:31;7.10;;;4.63;;
19846;SDS011;10084;50.518;8.588;2024-03-06T10:52:05;10.07;;;5.33;;
19846;SDS011;10084;50.518;8.588;2024-03-06T10:54:32;6.17;;;4.47;;
19846;SDS011;10084;50.518;8.588;2024-03-06T10:57:04;4.63;;;3.97;;
19846;SDS011;10084;50.518;8.588;2024-03-06T10:59:30;6.13;;;4.53;;
19846;SDS011;10084;50.518;8.588;2024-03-06T11:01:56;5.83;;;4.47;;
19846;SDS011;10084;50.518;8.588;2024-03-06T11:04:26;5.23;;;4.73;;
19846;SDS011;10084;50.518;8.588;2024-03-06T11:06:54;5.13;;;3.87;;
19846;SDS011;10084;50.518;8.588;2024-03-06T11:09:25;5.90;;;4.17;;
19846;SDS011;10084;50.518;8.588;2024-03-06T11:11:52;5.00;;;4.60;;
19846;SDS011;10084;50.518;8.588;2024-03-06T11:14:22;4.63;;;4.23;;
19846;SDS011;10084;50.518;8.588;2024-03-06T11:16:56;3.83;;;3.47;;
19846;SDS011;10084;50.518;8.588;2024-03-06T11:19:29;6.70;;;4.40;;
19846;SDS011;10084;50.518;8.588;2024-03-06T11:21:56;4.37;;;3.77;;
19846;SDS011;10084;50.518;8.588;2024-03-06T11:24:24;5.43;;;4.50;;
19846;SDS011;10084;50.518;8.588;2024-03-06T11:27:02;6.40;;;4.80;;
19846;SDS011;10084;50.518;8.588;2024-03-06T11:32:36;5.60;;;4.10;;
19846;SDS011;10084;50.518;8.588;2024-03-06T11:35:04;5.23;;;3.73;;
19846;SDS011;10084;50.518;8.588;2024-03-06T11:37:33;4.27;;;3.87;;
19846;SDS011;10084;50.518;8.588;2024-03-06T11:39:59;6.00;;;4.50;;
19846;SDS011;10084;50.518;8.588;2024-03-06T11:42:34;5.97;;;4.33;;
19846;SDS011;10084;50.518;8.588;2024-03-06T11:45:15;6.37;;;4.83;;
19846;SDS011;10084;50.518;8.588;2024-03-06T11:48:00;5.27;;;4.33;;
19846;SDS011;10084;50.518;8.588;2024-03-06T11:50:27;4.63;;;3.63;;
19846;SDS011;10084;50.518;8.588;2024-03-06T11:52:57;5.23;;;4.37;;
19846;SDS011;10084;50.518;8.588;2024-03-06T11:55:23;5.33;;;4.57;;
19846;SDS011;10084;50.518;8.588;2024-03-06T11:57:51;5.30;;;4.27;;
19846;SDS011;10084;50.518;8.588;2024-03-06T12:00:20;3.83;;;3.50;;
19846;SDS011;10084;50.518;8.588;2024-03-06T12:02:52;5.00;;;4.47;;
19846;SDS011;10084;50.518;8.588;2024-03-06T12:05:18;4.30;;;3.90;;
19846;SDS011;10084;50.518;8.588;2024-03-06T12:07:47;4.50;;;4.10;;
19846;SDS011;10084;50.518;8.588;2024-03-06T12:10:13;4.67;;;3.87;;
19846;SDS011;10084;50.518;8.588;2024-03-06T12:12:43;12.80;;;4.03;;
19846;SDS011;10084;50.518;8.588;2024-03-06T12:15:10;4.60;;;3.60;;
19846;SDS011;10084;50.518;8.588;2024-03-06T12:17:49;3.50;;;3.20;;
19846;SDS011;10084;50.518;8.588;2024-03-06T12:20:16;9.30;;;3.70;;
19846;SDS011;10084;50.518;8.588;2024-03-06T12:25:19;11.50;;;3.70;;
19846;SDS011;10084;50.518;8.588;2024-03-06T12:27:48;4.97;;;3.87;;
19846;SDS011;10084;50.518;8.588;2024-03-06T12:30:21;5.40;;;3.50;;
19846;SDS011;10084;50.518;8.588;2024-03-06T12:33:00;4.77;;;3.67;;
19846;SDS011;10084;50.518;8.588;2024-03-06T12:35:29;4.23;;;3.83;;
19846;SDS011;10084;50.518;8.588;2024-03-06T12:37:56;4.47;;;3.60;;
19846;SDS011;10084;50.518;8.588;2024-03-06T12:40:22;3.93;;;3.57;;
19846;SDS011;10084;50.518;8.588;2024-03-06T12:42:48;3.07;;;2.47;;
19846;SDS011;10084;50.518;8.588;2024-03-06T12:45:15;5.30;;;2.90;;
19846;SDS011;10084;50.518;8.588;2024-03-06T12:47:44;4.10;;;3.47;;
19846;SDS011;10084;50.518;8.588;2024-03-06T12:50:13;3.73;;;3.33;;
19846;SDS011;10084;50.518;8.588;2024-03-06T12:52:39;3.70;;;3.40;;
19846;SDS011;10084;50.518;8.588;2024-03-06T12:55:06;3.17;;;2.87;;
19846;SDS011;10084;50.518;8.588;2024-03-06T12:57:32;4.33;;;3.43;;
19846;SDS011;10084;50.518;8.588;2024-03-06T12:59:59;3.60;;;3.03;;
19846;SDS011;10084;50.518;8.588;2024-03-06T13:02:25;3.17;;;2.87;;
19846;SDS011;10084;50.518;8.588;2024-03-06T13:04:51;2.73;;;2.50;;
19846;SDS011;10084;50.518;8.588;2024-03-06T13:07:17;1.43;;;1.33;;
19846;SDS011;10084;50.518;8.588;2024-03-06T13:09:42;2.60;;;2.40;;
19846;SDS011;10084;50.518;8.588;2024-03-06T13:12:08;7.20;;;2.23;;
19846;SDS011;10084;50.518;8.588;2024-03-06T13:14:34;3.37;;;2.70;;
19846;SDS011;10084;50.518;8.588;2024-03-06T13:17:00;4.63;;;2.47;;
19846;SDS011;10084;50.518;8.588;2024-03-06T13:19:25;7.67;;;2.63;;
19846;SDS011;10084;50.518;8.588;2024-03-06T13:21:51;5.23;;;3.10;;
19846;SDS011;10084;50.518;8.588;2024-03-06T13:24:18;2.97;;;2.00;;
19846;SDS011;10084;50.518;8.588;2024-03-06T13:26:44;3.10;;;2.40;;
19846;SDS011;10084;50.518;8.588;2024-03-06T13:29:11;4.73;;;2.63;;
19846;SDS011;10084;50.518;8.588;2024-03-06T13:31:36;3.20;;;2.23;;
19846;SDS011;10084;50.518;8.588;2024-03-06T13:34:03;12.17;;;2.63;;
19846;SDS011;10084;50.518;8.588;2024-03-06T13:36:29;3.20;;;2.50;;
19846;SDS011;10084;50.518;8.588;2024-03-06T13:38:55;5.90;;;2.73;;
19846;SDS011;10084;50.518;8.588;2024-03-06T13:41:21;3.87;;;2.87;;
19846;SDS011;10084;50.518;8.588;2024-03-06T13:43:48;6.23;;;2.10;;
19846;SDS011;10084;50.518;8.588;2024-03-06T13:46:13;3.23;;;2.93;;
19846;SDS011;10084;50.518;8.588;2024-03-06T13:48:39;4.83;;;2.73;;
19846;SDS011;10084;50.518;8.588;2024-03-06T13:51:05;3.30;;;2.50;;
19846;SDS011;10084;50.518;8.588;2024-03-06T13:53:31;2.67;;;2.33;;
19846;SDS011;10084;50.518;8.588;2024-03-06T13:55:57;3.93;;;2.83;;
19846;SDS011;10084;50.518;8.588;2024-03-06T13:58:23;5.10;;;2.43;;
19846;SDS011;10084;50.518;8.588;2024-03-06T14:00:49;2.47;;;2.07;;
19846;SDS011;10084;50.518;8.588;2024-03-06T14:03:14;2.87;;;2.53;;
19846;SDS011;10084;50.518;8.588;2024-03-06T14:05:40;2.67;;;2.23;;
19846;SDS011;10084;50.518;8.588;2024-03-06T14:08:06;3.80;;;2.63;;
19846;SDS011;10084;50.518;8.588;2024-03-06T14:10:32;2.77;;;1.80;;
19846;SDS011;10084;50.518;8.588;2024-03-06T14:12:59;2.93;;;2.37;;
19846;SDS011;10084;50.518;8.588;2024-03-06T14:15:25;3.20;;;2.20;;
19846;SDS011;10084;50.518;8.588;2024-03-06T14:17:51;5.43;;;3.13;;
19846;SDS011;10084;50.518;8.588;2024-03-06T14:20:19;2.97;;;2.20;;
19846;SDS011;10084;50.518;8.588;2024-03-06T14:22:46;5.90;;;2.80;;
19846;SDS011;10084;50.518;8.588;2024-03-06T14:25:12;3.53;;;2.77;;
19846;SDS011;10084;50.518;8.588;2024-03-06T14:27:38;3.40;;;2.60;;
19846;SDS011;10084;50.518;8.588;2024-03-06T14:30:04;2.63;;;1.60;;
19846;SDS011;10084;50.518;8.588;2024-03-06T14:32:32;3.07;;;2.50;;
19846;SDS011;10084;50.518;8.588;2024-03-06T14:34:58;3.33;;;2.27;;
19846;SDS011;10084;50.518;8.588;2024-03-06T14:37:24;3.97;;;3.13;;
19846;SDS011;10084;50.518;8.588;2024-03-06T14:39:49;3.83;;;2.43;;
19846;SDS011;10084;50.518;8.588;2024-03-06T14:42:16;6.77;;;2.63;;
19846;SDS011;10084;50.518;8.588;2024-03-06T14:44:42;2.83;;;2.33;;
19846;SDS011;10084;50.518;8.588;2024-03-06T14:47:09;3.40;;;2.63;;
19846;SDS011;10084;50.518;8.588;2024-03-06T14:49:35;3.63;;;2.47;;
19846;SDS011;10084;50.518;8.588;2024-03-06T14:52:00;3.37;;;2.13;;
19846;SDS011;10084;50.518;8.588;2024-03-06T14:54:27;3.80;;;2.40;;